Список аэропортов
Фактическая погода:

19 августа, 04:30
Температура: +18°C (+18.0*)
Ветер: юго-западный 2 м/с
Давление: *760 мм
Без существ. явл.
Время (МСК)Темп. СВетерВлажностьДавлениеОблачностьОсадки
03:00+21З, 4 м/с85%1012 гПаоблачно
04:00+20СЗ, 3 м/с90%1012 гПаоблачно
05:00+19З, 1 м/с94%1012 гПаоблачно
06:00+19З, 2 м/с92%1012 гПаоблачносл. дождь
07:00+19З, 2 м/с92%1012 гПаоблачнодождь
08:00+19СЗ, 2 м/с93%1012 гПаоблачно
09:00+20З, 2 м/с94%1013 гПаоблачно
10:00+21З, 4 м/с83%1014 гПаоблачнодождь
11:00+19З, 4 м/с82%1015 гПаоблачнодождь
12:00+19З, 4 м/с83%1016 гПаоблачнодождь
13:00+19З, 2 м/с85%1016 гПаоблачносл. дождь
14:00+19З, 3 м/с91%1016 гПаоблачно
15:00+22З, 4 м/с79%1016 гПаоблачно
16:00+22З, 4 м/с68%1017 гПаоблачно
17:00+23СЗ, 3 м/с65%1017 гПаоблачно
18:00+23СЗ, 3 м/с65%1017 гПаоблачно
19:00+22СЗ, 3 м/с66%1017 гПаоблачно
20:00+21СЗ, 2 м/с68%1017 гПаоблачно
21:00+20СВ, 1 м/с74%1018 гПаоблачно
22:00+19СВ, 1 м/с81%1018 гПаоблачносл. дождь
23:00+19В, 1 м/с82%1019 гПаоблачносл. дождь
20 августа
00:00+18ЮВ, 1 м/с87%1020 гПаоблачно
01:00+16Штиль 95%1020 гПаоблачно
02:00+16ЮЗ, 1 м/с95%1020 гПаоблачно
03:00+16З, 1 м/с96%1020 гПаоблачно
04:00+16З, 2 м/с98%1021 гПаоблачно
05:00+15З, 1 м/с98%1021 гПаоблачно
06:00+15СЗ, 1 м/с99%1021 гПаоблачно
07:00+15СЗ, 1 м/с98%1022 гПаоблачно
08:00+15С, 1 м/с98%1022 гПаоблачно
09:00+17С, 2 м/с96%1022 гПаоблачно
10:00+17СВ, 2 м/с93%1022 гПаоблачно
11:00+18СВ, 2 м/с88%1022 гПаоблачно
12:00+18СВ, 2 м/с77%1022 гПаоблачно
13:00+20СВ, 2 м/с65%1022 гПаоблачно
14:00+22СВ, 3 м/с51%1021 гПаоблачно
15:00+23В, 4 м/с46%1020 гПаоблачно
16:00+23В, 4 м/с47%1020 гПаоблачно
17:00+24В, 5 м/с48%1018 гПаоблачно
18:00+24В, 4 м/с49%1018 гПаоблачно
19:00+24В, 3 м/с50%1018 гПаоблачно
20:00+24В, 3 м/с51%1018 гПаоблачно
21:00+23В, 3 м/с59%1017 гПас прояснениями
22:00+22В, 5 м/с61%1017 гПас прояснениями
23:00+21В, 5 м/с67%1016 гПаоблачно
21 августа
00:00+20В, 4 м/с74%1016 гПаоблачно
01:00+19ЮВ, 2 м/с84%1016 гПаоблачнодождь
02:00+19ЮВ, 3 м/с91%1015 гПас прояснениями
03:00+20Ю, 4 м/с91%1016 гПаясно